Address 0x1fb05bfe71efb9cb16a4b52a2da312fba3966798

 
 
Txn Hash
Method
Block
From
To
Value [Txn Fee]
0x8533d45dc310400ac998ffc55758fb8cf74fe57cabd1c61fa6c2f76eddbcfd5a0xfcde5a65385943242023-01-27 17:01:154 hrs 45 mins ago0x1fb05bfe71efb9cb16a4b52a2da312fba3966798OUT 0x5848c128399d2c235eff26de60128451c697f3af0 MATIC0.053814918 178.000000001
0x78160c60af383f7a83b7ebc0267484643eb2c718b6cc204dcff2bc3c2089a57f0xff050000385782042023-01-27 6:49:3014 hrs 57 mins ago0x1fb05bfe71efb9cb16a4b52a2da312fba3966798OUT 0x8e6eb93d76067ac1b756b2fb0c7e8986f6a5e5810 MATIC0.032956864858 83.387601642
0x8f1155ec1e04d701d73e2a9025625133dbe2969c2d41918240ece45d7f4531e8Do Swap385476802023-01-26 12:01:081 day 9 hrs ago0x1fb05bfe71efb9cb16a4b52a2da312fba3966798OUT 0xe2f6caf5d97fda64b6be97645e01804c5ddf989a0 MATIC0.045131981372 88.315372369
0xab377de0d98324e013a0cc4329219b849f33baea89282d50287171e3f87e836e0xff030000385204172023-01-25 19:28:142 days 2 hrs ago0x1fb05bfe71efb9cb16a4b52a2da312fba3966798OUT 0x8e6eb93d76067ac1b756b2fb0c7e8986f6a5e5810 MATIC0.003013095606 48.149439197
0x535d9fbd64b8b1f5ce220a61ef049cee24c290195f33af77f32e35ed5159b0770xff060000384367062023-01-23 17:07:264 days 4 hrs ago0x1fb05bfe71efb9cb16a4b52a2da312fba3966798OUT 0x8e6eb93d76067ac1b756b2fb0c7e8986f6a5e5810 MATIC0.019359320407 172.45227917
0x0574397c1a3afdabd1136356ffad7c60ce9d3ec9f12c5708d345dc66b8cda1130xfcde5a65383953012023-01-22 16:22:095 days 5 hrs ago0x1fb05bfe71efb9cb16a4b52a2da312fba3966798OUT 0x5848c128399d2c235eff26de60128451c697f3af0 MATIC0.029524489645 103.132954372
0x9e09b969156bf8f266826c3ef14332ae35143223cb1e9a3c2d91eaf2c534823d0xff030000383462252023-01-21 10:41:186 days 11 hrs ago0x1fb05bfe71efb9cb16a4b52a2da312fba3966798OUT 0x8e6eb93d76067ac1b756b2fb0c7e8986f6a5e5810 MATIC0.016714927609 266.339392735
0xc22d8dce383cd7c0a9cdac729219f64963e1ec5ab725b7c57a41903b981fdc09Do Swap383293542023-01-21 0:35:136 days 21 hrs ago0x1fb05bfe71efb9cb16a4b52a2da312fba3966798OUT 0xd9590f53ce1d043393692be98b49c8d561e68ec00 MATIC0.004170358152 61.513336375
0x1ea6fd8dcf690b5117351bef8b59acf9548e98305d821a9327bd142bd4f0fcd0Do Swap383285082023-01-21 0:05:156 days 21 hrs ago0x1fb05bfe71efb9cb16a4b52a2da312fba3966798OUT 0xd9590f53ce1d043393692be98b49c8d561e68ec00 MATIC0.004521534672 66.481424934
0xc2d93ca5b2671ec04e31eb5fa920286a15ecdb98d566f52bd5154198ae609b9aDo Swap383269942023-01-20 23:11:386 days 22 hrs ago0x1fb05bfe71efb9cb16a4b52a2da312fba3966798OUT 0xd9590f53ce1d043393692be98b49c8d561e68ec00 MATIC0.00269409851 50.413520024
0x085ef8dd969b043119c6388b94510d7337e6616964187a915a9aeb2847b5861dDo Swap383257732023-01-20 22:28:096 days 23 hrs ago0x1fb05bfe71efb9cb16a4b52a2da312fba3966798OUT 0xd9590f53ce1d043393692be98b49c8d561e68ec00 MATIC0.004880003416 72.065736559
0xc575f64950a30708e43d9f057abc7c73a8ccd453bf5a989323e341e42ddc7b02Do Swap383245242023-01-20 21:43:557 days 2 mins ago0x1fb05bfe71efb9cb16a4b52a2da312fba3966798OUT 0xd9590f53ce1d043393692be98b49c8d561e68ec00 MATIC0.006102537478 89.908471135
0x8402747b9d5e1a13eea62760a06a509bda83d815abdb8758ab7101d6084c1a43Do Swap383233922023-01-20 21:03:517 days 42 mins ago0x1fb05bfe71efb9cb16a4b52a2da312fba3966798OUT 0xd9590f53ce1d043393692be98b49c8d561e68ec00 MATIC0.00543 80.000000001
0x12aa2e1687ad818e58e8113b42587a043fb8dcfd3f8432e63c263d6737851ee5Do Swap383227732023-01-20 20:41:237 days 1 hr ago0x1fb05bfe71efb9cb16a4b52a2da312fba3966798OUT 0xd9590f53ce1d043393692be98b49c8d561e68ec00 MATIC0.016678171456 246.005243028
0x700caaef192b4897ff4d9cfc743d502b0443717b5dd0a100a681928e66589806Do Swap383221342023-01-20 20:18:137 days 1 hr ago0x1fb05bfe71efb9cb16a4b52a2da312fba3966798OUT 0xd9590f53ce1d043393692be98b49c8d561e68ec00 MATIC0.025882392964 99.895378007
0x7bf1c6f6eb451935379c06a5cde575b04c584c0dcbd2494c7e0fa7f93d9d0c4e0xff040000383142932023-01-20 15:31:537 days 6 hrs ago0x1fb05bfe71efb9cb16a4b52a2da312fba3966798OUT 0x8e6eb93d76067ac1b756b2fb0c7e8986f6a5e5810 MATIC0.007355568409 96.018176242
0x74532bc874a5aee7e59d7eb7afff16c609786bb21ce9f6037e1a60ed204e5a68Do Swap383104882023-01-20 13:14:017 days 8 hrs ago0x1fb05bfe71efb9cb16a4b52a2da312fba3966798OUT 0xd9590f53ce1d043393692be98b49c8d561e68ec00 MATIC0.004613415786 67.969293362
0xa6fa080a200fea7a679ff5614ec1e78950b85a8771427ae233d0fff167e3211aDo Swap383090342023-01-20 12:21:257 days 9 hrs ago0x1fb05bfe71efb9cb16a4b52a2da312fba3966798OUT 0xd9590f53ce1d043393692be98b49c8d561e68ec00 MATIC0.005546574535 81.698230031
0x6e08cad5658a4501fc6223897fb2c91c17cadf8659e14f8df41f19f9e72a5b48Do Swap383080002023-01-20 11:44:097 days 10 hrs ago0x1fb05bfe71efb9cb16a4b52a2da312fba3966798OUT 0xd9590f53ce1d043393692be98b49c8d561e68ec00 MATIC0.004073281522 59.997371124
0xb05acf42cf8ead8f824f67a8f08a5bccd0d905bd160161b0957fefb675c1b4b6Do Swap383073492023-01-20 11:20:317 days 10 hrs ago0x1fb05bfe71efb9cb16a4b52a2da312fba3966798OUT 0xd9590f53ce1d043393692be98b49c8d561e68ec00 MATIC0.005942353945 87.527860027
0x92949933cfd48bcd82cfdd82fba46bd18ce11dba232900ff9e30d78404dacc70Do Swap383061052023-01-20 10:35:547 days 11 hrs ago0x1fb05bfe71efb9cb16a4b52a2da312fba3966798OUT 0xd9590f53ce1d043393692be98b49c8d561e68ec00 MATIC0.00334637546 62.631021155
0x7df693768e79a31cdf1f733d20729779bb260702d4dd650fb6836d18bda3d1d7Do Swap383051382023-01-20 10:00:307 days 11 hrs ago0x1fb05bfe71efb9cb16a4b52a2da312fba3966798OUT 0xd9590f53ce1d043393692be98b49c8d561e68ec00 MATIC0.0101694 150.000000001
0x090fe1e66443d84e5f4c3b978e12f3eac9ebf5aa6d15ca472d255ffee511b651Do Swap383035012023-01-20 9:01:567 days 12 hrs ago0x1fb05bfe71efb9cb16a4b52a2da312fba3966798OUT 0xd9590f53ce1d043393692be98b49c8d561e68ec00 MATIC0.004722530908 69.164190223
0x38972f88067b86c18697c0cd80a1b746a2ebae20947b805e6b6b5e510164dc85Do Swap383029742023-01-20 8:43:167 days 13 hrs ago0x1fb05bfe71efb9cb16a4b52a2da312fba3966798OUT 0xd9590f53ce1d043393692be98b49c8d561e68ec00 MATIC0.005538152412 81.702944839
0x6f99cb3e88578b98d60583a707be3c4da2d7673e0fb276e1a8d61643c114b61fDo Swap383013082023-01-20 7:43:047 days 14 hrs ago0x1fb05bfe71efb9cb16a4b52a2da312fba3966798OUT 0xd9590f53ce1d043393692be98b49c8d561e68ec00 MATIC0.003325336251 62.35395184
[ Download CSV Export 
Parent Txn Hash Block From To Value
Loading

Contract Name:
0 MATIC

Compiler Version
0

Optimization Enabled:
0 MATIC

Other Settings:
-NA-
Block Transaction Gas Used Reward
Age Block Fee Address BC Fee Address Voting Power Jailed Incoming
Block Uncle Number Difficulty Gas Used Reward
Loading
Loading
Make sure to use the "Vote Down" button for any spammy posts, and the "Vote Up" for interesting conversations.